sensor_id;sensor_type;location;lat;lon;timestamp;P1;durP1;ratioP1;P2;durP2;ratioP2
21769;SDS011;11046;49.558;8.674;2023-03-02T00:02:42;42.87;;;19.23;;
21769;SDS011;11046;49.558;8.674;2023-03-02T00:05:43;41.93;;;19.00;;
21769;SDS011;11046;49.558;8.674;2023-03-02T00:08:48;42.60;;;19.40;;
21769;SDS011;11046;49.558;8.674;2023-03-02T00:11:49;43.60;;;19.77;;
21769;SDS011;11046;49.558;8.674;2023-03-02T00:14:53;42.23;;;19.67;;
21769;SDS011;11046;49.558;8.674;2023-03-02T00:17:57;44.30;;;20.37;;
21769;SDS011;11046;49.558;8.674;2023-03-02T00:20:57;42.70;;;19.23;;
21769;SDS011;11046;49.558;8.674;2023-03-02T00:23:58;40.70;;;18.90;;
21769;SDS011;11046;49.558;8.674;2023-03-02T00:27:02;41.33;;;17.93;;
21769;SDS011;11046;49.558;8.674;2023-03-02T00:30:03;46.10;;;20.53;;
21769;SDS011;11046;49.558;8.674;2023-03-02T00:33:07;43.90;;;18.90;;
21769;SDS011;11046;49.558;8.674;2023-03-02T00:36:18;42.57;;;19.67;;
21769;SDS011;11046;49.558;8.674;2023-03-02T00:39:22;43.73;;;20.73;;
21769;SDS011;11046;49.558;8.674;2023-03-02T00:42:23;44.97;;;20.33;;
21769;SDS011;11046;49.558;8.674;2023-03-02T00:45:24;47.70;;;21.27;;
21769;SDS011;11046;49.558;8.674;2023-03-02T00:48:28;47.17;;;20.20;;
21769;SDS011;11046;49.558;8.674;2023-03-02T00:51:29;41.70;;;19.53;;
21769;SDS011;11046;49.558;8.674;2023-03-02T00:54:32;49.63;;;20.40;;
21769;SDS011;11046;49.558;8.674;2023-03-02T00:57:33;45.67;;;20.50;;
21769;SDS011;11046;49.558;8.674;2023-03-02T01:00:35;45.97;;;20.13;;
21769;SDS011;11046;49.558;8.674;2023-03-02T01:03:40;51.07;;;21.40;;
21769;SDS011;11046;49.558;8.674;2023-03-02T01:06:41;49.50;;;21.20;;
21769;SDS011;11046;49.558;8.674;2023-03-02T01:09:46;48.60;;;21.13;;
21769;SDS011;11046;49.558;8.674;2023-03-02T01:12:50;47.60;;;20.00;;
21769;SDS011;11046;49.558;8.674;2023-03-02T01:15:58;43.70;;;20.37;;
21769;SDS011;11046;49.558;8.674;2023-03-02T01:19:04;48.77;;;21.60;;
21769;SDS011;11046;49.558;8.674;2023-03-02T01:22:08;47.70;;;21.23;;
21769;SDS011;11046;49.558;8.674;2023-03-02T01:25:09;48.83;;;21.80;;
21769;SDS011;11046;49.558;8.674;2023-03-02T01:28:10;49.33;;;20.17;;
21769;SDS011;11046;49.558;8.674;2023-03-02T01:31:13;47.67;;;20.10;;
21769;SDS011;11046;49.558;8.674;2023-03-02T01:34:14;46.97;;;21.77;;
21769;SDS011;11046;49.558;8.674;2023-03-02T01:37:15;48.03;;;21.70;;
21769;SDS011;11046;49.558;8.674;2023-03-02T01:40:15;45.40;;;20.23;;
21769;SDS011;11046;49.558;8.674;2023-03-02T01:43:16;46.87;;;21.27;;
21769;SDS011;11046;49.558;8.674;2023-03-02T01:46:21;47.00;;;20.43;;
21769;SDS011;11046;49.558;8.674;2023-03-02T01:49:28;50.87;;;21.50;;
21769;SDS011;11046;49.558;8.674;2023-03-02T01:52:33;51.40;;;21.13;;
21769;SDS011;11046;49.558;8.674;2023-03-02T01:55:38;45.07;;;20.07;;
21769;SDS011;11046;49.558;8.674;2023-03-02T01:58:39;44.93;;;21.20;;
21769;SDS011;11046;49.558;8.674;2023-03-02T02:01:40;44.60;;;20.17;;
21769;SDS011;11046;49.558;8.674;2023-03-02T02:04:44;47.20;;;20.47;;
21769;SDS011;11046;49.558;8.674;2023-03-02T02:07:47;49.43;;;21.63;;
21769;SDS011;11046;49.558;8.674;2023-03-02T02:10:50;43.77;;;19.83;;
21769;SDS011;11046;49.558;8.674;2023-03-02T02:13:52;48.90;;;19.50;;
21769;SDS011;11046;49.558;8.674;2023-03-02T02:16:56;47.60;;;19.87;;
21769;SDS011;11046;49.558;8.674;2023-03-02T02:23:18;46.90;;;20.63;;
21769;SDS011;11046;49.558;8.674;2023-03-02T02:26:25;44.10;;;20.67;;
21769;SDS011;11046;49.558;8.674;2023-03-02T02:29:30;45.27;;;20.23;;
21769;SDS011;11046;49.558;8.674;2023-03-02T02:32:35;53.47;;;21.03;;
21769;SDS011;11046;49.558;8.674;2023-03-02T02:35:40;46.83;;;20.50;;
21769;SDS011;11046;49.558;8.674;2023-03-02T02:38:41;47.60;;;20.30;;
21769;SDS011;11046;49.558;8.674;2023-03-02T02:41:48;45.67;;;20.60;;
21769;SDS011;11046;49.558;8.674;2023-03-02T02:44:52;52.07;;;20.73;;
21769;SDS011;11046;49.558;8.674;2023-03-02T02:47:57;48.57;;;21.57;;
21769;SDS011;11046;49.558;8.674;2023-03-02T02:50:57;50.43;;;22.37;;
21769;SDS011;11046;49.558;8.674;2023-03-02T02:54:00;49.90;;;21.27;;
21769;SDS011;11046;49.558;8.674;2023-03-02T02:57:06;46.63;;;20.63;;
21769;SDS011;11046;49.558;8.674;2023-03-02T03:00:13;50.67;;;21.67;;
21769;SDS011;11046;49.558;8.674;2023-03-02T03:03:32;49.83;;;21.00;;
21769;SDS011;11046;49.558;8.674;2023-03-02T03:06:47;50.00;;;20.83;;
21769;SDS011;11046;49.558;8.674;2023-03-02T03:10:03;48.13;;;20.73;;
21769;SDS011;11046;49.558;8.674;2023-03-02T03:13:07;46.47;;;20.57;;
21769;SDS011;11046;49.558;8.674;2023-03-02T03:16:10;47.53;;;19.97;;
21769;SDS011;11046;49.558;8.674;2023-03-02T03:19:16;50.00;;;20.57;;
21769;SDS011;11046;49.558;8.674;2023-03-02T03:22:29;48.33;;;19.87;;
21769;SDS011;11046;49.558;8.674;2023-03-02T03:25:31;46.77;;;19.30;;
21769;SDS011;11046;49.558;8.674;2023-03-02T03:28:34;48.83;;;20.13;;
21769;SDS011;11046;49.558;8.674;2023-03-02T03:31:36;49.13;;;20.40;;
21769;SDS011;11046;49.558;8.674;2023-03-02T03:34:37;44.70;;;19.50;;
21769;SDS011;11046;49.558;8.674;2023-03-02T03:37:42;47.23;;;20.23;;
21769;SDS011;11046;49.558;8.674;2023-03-02T03:40:44;53.20;;;21.00;;
21769;SDS011;11046;49.558;8.674;2023-03-02T03:43:45;48.03;;;19.90;;
21769;SDS011;11046;49.558;8.674;2023-03-02T03:46:45;52.10;;;20.20;;
21769;SDS011;11046;49.558;8.674;2023-03-02T03:49:46;49.13;;;19.93;;
21769;SDS011;11046;49.558;8.674;2023-03-02T03:52:47;48.83;;;20.40;;
21769;SDS011;11046;49.558;8.674;2023-03-02T03:55:56;46.73;;;19.93;;
21769;SDS011;11046;49.558;8.674;2023-03-02T03:58:56;54.83;;;19.87;;
21769;SDS011;11046;49.558;8.674;2023-03-02T04:02:08;49.73;;;20.33;;
21769;SDS011;11046;49.558;8.674;2023-03-02T04:05:14;58.70;;;20.90;;
21769;SDS011;11046;49.558;8.674;2023-03-02T04:08:15;53.47;;;20.80;;
21769;SDS011;11046;49.558;8.674;2023-03-02T04:11:16;54.37;;;20.57;;
21769;SDS011;11046;49.558;8.674;2023-03-02T04:14:18;45.20;;;19.50;;
21769;SDS011;11046;49.558;8.674;2023-03-02T04:17:19;48.73;;;20.03;;
21769;SDS011;11046;49.558;8.674;2023-03-02T04:20:24;50.63;;;20.90;;
21769;SDS011;11046;49.558;8.674;2023-03-02T04:23:28;45.70;;;19.87;;
21769;SDS011;11046;49.558;8.674;2023-03-02T04:26:28;46.57;;;19.20;;
21769;SDS011;11046;49.558;8.674;2023-03-02T04:29:29;45.20;;;19.27;;
21769;SDS011;11046;49.558;8.674;2023-03-02T04:32:32;44.27;;;18.50;;
21769;SDS011;11046;49.558;8.674;2023-03-02T04:35:33;44.03;;;18.23;;
21769;SDS011;11046;49.558;8.674;2023-03-02T04:38:35;42.23;;;18.27;;
21769;SDS011;11046;49.558;8.674;2023-03-02T04:41:36;40.80;;;18.17;;
21769;SDS011;11046;49.558;8.674;2023-03-02T04:44:37;45.40;;;18.80;;
21769;SDS011;11046;49.558;8.674;2023-03-02T04:47:37;54.53;;;19.83;;
21769;SDS011;11046;49.558;8.674;2023-03-02T04:50:38;50.70;;;20.07;;
21769;SDS011;11046;49.558;8.674;2023-03-02T04:53:40;47.93;;;20.87;;
21769;SDS011;11046;49.558;8.674;2023-03-02T04:56:40;47.30;;;20.17;;
21769;SDS011;11046;49.558;8.674;2023-03-02T04:59:41;47.90;;;19.83;;
21769;SDS011;11046;49.558;8.674;2023-03-02T05:02:41;47.43;;;20.13;;
21769;SDS011;11046;49.558;8.674;2023-03-02T05:05:42;52.23;;;19.87;;
21769;SDS011;11046;49.558;8.674;2023-03-02T05:08:43;51.03;;;19.50;;
21769;SDS011;11046;49.558;8.674;2023-03-02T05:11:44;44.37;;;17.93;;
21769;SDS011;11046;49.558;8.674;2023-03-02T05:14:44;52.50;;;19.17;;
21769;SDS011;11046;49.558;8.674;2023-03-02T05:17:45;49.23;;;19.77;;
21769;SDS011;11046;49.558;8.674;2023-03-02T05:20:45;51.93;;;20.20;;
21769;SDS011;11046;49.558;8.674;2023-03-02T05:23:46;47.90;;;19.93;;
21769;SDS011;11046;49.558;8.674;2023-03-02T05:26:47;49.33;;;19.80;;
21769;SDS011;11046;49.558;8.674;2023-03-02T05:29:47;48.83;;;19.90;;
21769;SDS011;11046;49.558;8.674;2023-03-02T05:32:49;49.50;;;20.77;;
21769;SDS011;11046;49.558;8.674;2023-03-02T05:35:50;52.70;;;19.93;;
21769;SDS011;11046;49.558;8.674;2023-03-02T05:38:51;51.27;;;21.07;;
21769;SDS011;11046;49.558;8.674;2023-03-02T05:41:51;55.70;;;22.63;;
21769;SDS011;11046;49.558;8.674;2023-03-02T05:44:52;52.00;;;22.00;;
21769;SDS011;11046;49.558;8.674;2023-03-02T05:47:53;53.90;;;21.63;;
21769;SDS011;11046;49.558;8.674;2023-03-02T05:50:54;54.83;;;21.20;;
21769;SDS011;11046;49.558;8.674;2023-03-02T05:53:54;52.80;;;21.50;;
21769;SDS011;11046;49.558;8.674;2023-03-02T05:56:55;52.50;;;20.97;;
21769;SDS011;11046;49.558;8.674;2023-03-02T05:59:56;48.17;;;19.93;;
21769;SDS011;11046;49.558;8.674;2023-03-02T06:02:56;51.17;;;20.27;;
21769;SDS011;11046;49.558;8.674;2023-03-02T06:05:57;55.47;;;20.67;;
21769;SDS011;11046;49.558;8.674;2023-03-02T06:08:57;51.40;;;19.67;;
21769;SDS011;11046;49.558;8.674;2023-03-02T06:11:58;50.77;;;19.97;;
21769;SDS011;11046;49.558;8.674;2023-03-02T06:14:58;49.70;;;20.53;;
21769;SDS011;11046;49.558;8.674;2023-03-02T06:17:59;49.97;;;19.03;;
21769;SDS011;11046;49.558;8.674;2023-03-02T06:20:59;46.23;;;19.57;;
21769;SDS011;11046;49.558;8.674;2023-03-02T06:24:00;50.60;;;18.50;;
21769;SDS011;11046;49.558;8.674;2023-03-02T06:27:01;47.83;;;19.27;;
21769;SDS011;11046;49.558;8.674;2023-03-02T06:30:01;47.07;;;19.07;;
21769;SDS011;11046;49.558;8.674;2023-03-02T06:33:02;45.57;;;19.17;;
21769;SDS011;11046;49.558;8.674;2023-03-02T06:36:03;43.73;;;18.73;;
21769;SDS011;11046;49.558;8.674;2023-03-02T06:39:04;49.17;;;19.80;;
21769;SDS011;11046;49.558;8.674;2023-03-02T06:42:05;41.33;;;18.23;;
21769;SDS011;11046;49.558;8.674;2023-03-02T06:45:06;42.60;;;18.13;;
21769;SDS011;11046;49.558;8.674;2023-03-02T06:48:07;45.40;;;19.27;;
21769;SDS011;11046;49.558;8.674;2023-03-02T06:51:08;41.13;;;17.20;;
21769;SDS011;11046;49.558;8.674;2023-03-02T06:54:09;44.27;;;18.07;;
21769;SDS011;11046;49.558;8.674;2023-03-02T06:57:09;46.97;;;19.23;;
21769;SDS011;11046;49.558;8.674;2023-03-02T07:00:10;45.70;;;19.20;;
21769;SDS011;11046;49.558;8.674;2023-03-02T07:03:16;43.53;;;18.23;;
21769;SDS011;11046;49.558;8.674;2023-03-02T07:06:17;43.23;;;18.73;;
21769;SDS011;11046;49.558;8.674;2023-03-02T07:09:18;45.03;;;19.33;;
21769;SDS011;11046;49.558;8.674;2023-03-02T07:12:18;41.27;;;17.53;;
21769;SDS011;11046;49.558;8.674;2023-03-02T07:15:19;43.17;;;18.17;;
21769;SDS011;11046;49.558;8.674;2023-03-02T07:18:19;40.23;;;18.87;;
21769;SDS011;11046;49.558;8.674;2023-03-02T07:21:20;44.43;;;20.23;;
21769;SDS011;11046;49.558;8.674;2023-03-02T07:24:21;42.50;;;18.20;;
21769;SDS011;11046;49.558;8.674;2023-03-02T07:27:21;44.40;;;18.80;;
21769;SDS011;11046;49.558;8.674;2023-03-02T07:30:22;44.43;;;18.40;;
21769;SDS011;11046;49.558;8.674;2023-03-02T07:33:23;43.50;;;18.97;;
21769;SDS011;11046;49.558;8.674;2023-03-02T07:36:24;44.37;;;18.10;;
21769;SDS011;11046;49.558;8.674;2023-03-02T07:39:25;38.93;;;18.20;;
21769;SDS011;11046;49.558;8.674;2023-03-02T07:42:25;42.57;;;18.00;;
21769;SDS011;11046;49.558;8.674;2023-03-02T07:45:30;41.20;;;18.20;;
21769;SDS011;11046;49.558;8.674;2023-03-02T07:48:31;47.53;;;18.00;;
21769;SDS011;11046;49.558;8.674;2023-03-02T07:51:32;38.00;;;17.57;;
21769;SDS011;11046;49.558;8.674;2023-03-02T07:54:32;43.27;;;17.97;;
21769;SDS011;11046;49.558;8.674;2023-03-02T07:57:33;41.33;;;17.20;;
21769;SDS011;11046;49.558;8.674;2023-03-02T08:00:34;39.37;;;17.73;;
21769;SDS011;11046;49.558;8.674;2023-03-02T08:03:35;43.90;;;19.23;;
21769;SDS011;11046;49.558;8.674;2023-03-02T08:06:36;38.73;;;17.43;;
21769;SDS011;11046;49.558;8.674;2023-03-02T08:09:37;43.33;;;18.07;;
21769;SDS011;11046;49.558;8.674;2023-03-02T08:12:38;38.27;;;17.00;;
21769;SDS011;11046;49.558;8.674;2023-03-02T08:15:41;39.43;;;17.27;;
21769;SDS011;11046;49.558;8.674;2023-03-02T08:18:42;38.37;;;18.07;;
21769;SDS011;11046;49.558;8.674;2023-03-02T08:21:43;39.13;;;16.63;;
21769;SDS011;11046;49.558;8.674;2023-03-02T08:24:44;34.30;;;16.73;;
21769;SDS011;11046;49.558;8.674;2023-03-02T08:27:44;34.10;;;16.47;;
21769;SDS011;11046;49.558;8.674;2023-03-02T08:30:53;35.57;;;16.63;;
21769;SDS011;11046;49.558;8.674;2023-03-02T08:33:58;35.57;;;16.60;;
21769;SDS011;11046;49.558;8.674;2023-03-02T08:36:58;37.33;;;17.43;;
21769;SDS011;11046;49.558;8.674;2023-03-02T08:39:59;39.47;;;18.20;;
21769;SDS011;11046;49.558;8.674;2023-03-02T08:42:59;36.97;;;16.73;;
21769;SDS011;11046;49.558;8.674;2023-03-02T08:46:00;36.13;;;17.17;;
21769;SDS011;11046;49.558;8.674;2023-03-02T08:49:01;33.10;;;16.67;;
21769;SDS011;11046;49.558;8.674;2023-03-02T08:52:02;34.30;;;16.80;;
21769;SDS011;11046;49.558;8.674;2023-03-02T08:55:03;31.70;;;15.93;;
21769;SDS011;11046;49.558;8.674;2023-03-02T08:58:04;40.13;;;17.03;;
21769;SDS011;11046;49.558;8.674;2023-03-02T09:01:05;31.33;;;16.33;;
21769;SDS011;11046;49.558;8.674;2023-03-02T09:04:11;30.73;;;15.87;;
21769;SDS011;11046;49.558;8.674;2023-03-02T09:07:12;33.27;;;15.87;;
21769;SDS011;11046;49.558;8.674;2023-03-02T09:10:16;32.77;;;16.17;;
21769;SDS011;11046;49.558;8.674;2023-03-02T09:13:16;32.63;;;16.80;;
21769;SDS011;11046;49.558;8.674;2023-03-02T09:16:17;31.57;;;16.37;;
21769;SDS011;11046;49.558;8.674;2023-03-02T09:19:19;31.13;;;16.77;;
21769;SDS011;11046;49.558;8.674;2023-03-02T09:22:19;29.53;;;15.67;;
21769;SDS011;11046;49.558;8.674;2023-03-02T09:25:20;31.60;;;16.60;;
21769;SDS011;11046;49.558;8.674;2023-03-02T09:28:21;30.83;;;16.13;;
21769;SDS011;11046;49.558;8.674;2023-03-02T09:31:22;31.87;;;16.80;;
21769;SDS011;11046;49.558;8.674;2023-03-02T09:34:22;33.73;;;16.13;;
21769;SDS011;11046;49.558;8.674;2023-03-02T09:37:23;28.13;;;14.97;;
21769;SDS011;11046;49.558;8.674;2023-03-02T09:40:24;31.73;;;15.37;;
21769;SDS011;11046;49.558;8.674;2023-03-02T09:46:37;31.60;;;15.37;;
21769;SDS011;11046;49.558;8.674;2023-03-02T09:53:20;31.20;;;15.70;;
21769;SDS011;11046;49.558;8.674;2023-03-02T09:56:22;30.20;;;15.93;;
21769;SDS011;11046;49.558;8.674;2023-03-02T09:59:28;29.67;;;15.73;;
21769;SDS011;11046;49.558;8.674;2023-03-02T10:03:24;30.00;;;15.70;;
21769;SDS011;11046;49.558;8.674;2023-03-02T10:06:06;28.73;;;15.10;;
21769;SDS011;11046;49.558;8.674;2023-03-02T10:09:08;30.17;;;15.80;;
21769;SDS011;11046;49.558;8.674;2023-03-02T10:12:20;27.67;;;14.60;;
21769;SDS011;11046;49.558;8.674;2023-03-02T10:15:53;33.70;;;16.07;;
21769;SDS011;11046;49.558;8.674;2023-03-02T10:22:17;29.07;;;16.70;;
21769;SDS011;11046;49.558;8.674;2023-03-02T10:25:38;26.67;;;15.07;;
21769;SDS011;11046;49.558;8.674;2023-03-02T10:28:48;26.53;;;14.53;;
21769;SDS011;11046;49.558;8.674;2023-03-02T10:31:58;29.00;;;14.90;;
21769;SDS011;11046;49.558;8.674;2023-03-02T10:35:13;27.00;;;14.73;;
21769;SDS011;11046;49.558;8.674;2023-03-02T10:38:18;32.40;;;14.93;;
21769;SDS011;11046;49.558;8.674;2023-03-02T10:41:29;27.42;;;14.93;;
21769;SDS011;11046;49.558;8.674;2023-03-02T10:44:38;26.10;;;14.20;;
21769;SDS011;11046;49.558;8.674;2023-03-02T10:47:44;27.02;;;14.48;;
21769;SDS011;11046;49.558;8.674;2023-03-02T10:50:51;25.10;;;14.38;;
21769;SDS011;11046;49.558;8.674;2023-03-02T11:00:28;27.58;;;14.65;;
21769;SDS011;11046;49.558;8.674;2023-03-02T11:03:30;26.58;;;14.65;;
21769;SDS011;11046;49.558;8.674;2023-03-02T11:06:32;27.35;;;15.07;;
21769;SDS011;11046;49.558;8.674;2023-03-02T11:09:33;27.60;;;15.55;;
21769;SDS011;11046;49.558;8.674;2023-03-02T11:12:35;27.13;;;14.65;;
21769;SDS011;11046;49.558;8.674;2023-03-02T11:15:39;26.38;;;15.18;;
21769;SDS011;11046;49.558;8.674;2023-03-02T11:18:48;27.17;;;15.57;;
21769;SDS011;11046;49.558;8.674;2023-03-02T11:22:09;25.38;;;14.57;;
21769;SDS011;11046;49.558;8.674;2023-03-02T11:25:39;26.60;;;14.38;;
21769;SDS011;11046;49.558;8.674;2023-03-02T11:28:53;28.10;;;14.32;;
21769;SDS011;11046;49.558;8.674;2023-03-02T11:35:21;24.42;;;13.07;;
21769;SDS011;11046;49.558;8.674;2023-03-02T11:38:52;27.30;;;15.10;;
21769;SDS011;11046;49.558;8.674;2023-03-02T11:41:54;25.10;;;13.27;;
21769;SDS011;11046;49.558;8.674;2023-03-02T11:44:55;27.65;;;13.10;;
21769;SDS011;11046;49.558;8.674;2023-03-02T11:47:57;28.17;;;12.90;;
21769;SDS011;11046;49.558;8.674;2023-03-02T11:51:03;21.83;;;13.23;;
21769;SDS011;11046;49.558;8.674;2023-03-02T11:54:19;20.77;;;13.15;;
21769;SDS011;11046;49.558;8.674;2023-03-02T11:57:36;25.55;;;13.15;;
21769;SDS011;11046;49.558;8.674;2023-03-02T12:00:50;26.27;;;13.13;;
21769;SDS011;11046;49.558;8.674;2023-03-02T12:04:06;26.42;;;13.68;;
21769;SDS011;11046;49.558;8.674;2023-03-02T12:07:17;26.08;;;12.98;;
21769;SDS011;11046;49.558;8.674;2023-03-02T12:14:28;23.85;;;13.10;;
21769;SDS011;11046;49.558;8.674;2023-03-02T12:17:45;27.63;;;13.60;;
21769;SDS011;11046;49.558;8.674;2023-03-02T12:24:23;23.20;;;13.52;;
21769;SDS011;11046;49.558;8.674;2023-03-02T12:27:32;29.65;;;14.32;;
21769;SDS011;11046;49.558;8.674;2023-03-02T12:30:37;23.90;;;12.88;;
21769;SDS011;11046;49.558;8.674;2023-03-02T12:33:53;24.10;;;12.95;;
21769;SDS011;11046;49.558;8.674;2023-03-02T12:36:59;20.85;;;11.60;;
21769;SDS011;11046;49.558;8.674;2023-03-02T12:40:23;30.33;;;12.75;;
21769;SDS011;11046;49.558;8.674;2023-03-02T12:44:01;23.42;;;13.30;;
21769;SDS011;11046;49.558;8.674;2023-03-02T12:47:27;23.10;;;11.80;;
21769;SDS011;11046;49.558;8.674;2023-03-02T12:50:32;20.75;;;11.93;;
21769;SDS011;11046;49.558;8.674;2023-03-02T12:53:39;21.52;;;12.00;;
21769;SDS011;11046;49.558;8.674;2023-03-02T12:56:40;25.02;;;12.38;;
21769;SDS011;11046;49.558;8.674;2023-03-02T12:59:41;24.90;;;12.15;;
21769;SDS011;11046;49.558;8.674;2023-03-02T13:02:50;23.17;;;12.10;;
21769;SDS011;11046;49.558;8.674;2023-03-02T13:06:03;21.02;;;12.82;;
21769;SDS011;11046;49.558;8.674;2023-03-02T13:09:11;23.00;;;11.85;;
21769;SDS011;11046;49.558;8.674;2023-03-02T13:12:14;25.23;;;12.77;;
21769;SDS011;11046;49.558;8.674;2023-03-02T13:15:15;21.58;;;12.07;;
21769;SDS011;11046;49.558;8.674;2023-03-02T13:18:19;19.67;;;10.88;;
21769;SDS011;11046;49.558;8.674;2023-03-02T13:21:35;20.27;;;11.88;;
21769;SDS011;11046;49.558;8.674;2023-03-02T13:24:44;25.88;;;11.10;;
21769;SDS011;11046;49.558;8.674;2023-03-02T13:27:54;21.42;;;12.27;;
21769;SDS011;11046;49.558;8.674;2023-03-02T13:30:57;20.13;;;11.38;;
21769;SDS011;11046;49.558;8.674;2023-03-02T13:34:04;23.98;;;11.73;;
21769;SDS011;11046;49.558;8.674;2023-03-02T13:37:21;23.20;;;10.77;;
21769;SDS011;11046;49.558;8.674;2023-03-02T13:40:41;21.88;;;11.27;;
21769;SDS011;11046;49.558;8.674;2023-03-02T13:43:53;21.85;;;10.80;;
21769;SDS011;11046;49.558;8.674;2023-03-02T13:46:54;20.25;;;10.65;;
21769;SDS011;11046;49.558;8.674;2023-03-02T13:50:04;18.77;;;10.45;;
21769;SDS011;11046;49.558;8.674;2023-03-02T13:53:05;20.42;;;11.10;;
21769;SDS011;11046;49.558;8.674;2023-03-02T13:56:06;18.73;;;10.38;;
21769;SDS011;11046;49.558;8.674;2023-03-02T13:59:14;22.52;;;10.05;;
21769;SDS011;11046;49.558;8.674;2023-03-02T14:02:22;21.65;;;11.13;;
21769;SDS011;11046;49.558;8.674;2023-03-02T14:05:25;21.58;;;10.27;;
21769;SDS011;11046;49.558;8.674;2023-03-02T14:08:34;19.48;;;10.27;;
21769;SDS011;11046;49.558;8.674;2023-03-02T14:11:36;22.33;;;10.63;;
21769;SDS011;11046;49.558;8.674;2023-03-02T14:14:40;18.50;;;8.77;;
21769;SDS011;11046;49.558;8.674;2023-03-02T14:17:41;17.92;;;8.43;;
21769;SDS011;11046;49.558;8.674;2023-03-02T14:20:50;15.82;;;8.07;;
21769;SDS011;11046;49.558;8.674;2023-03-02T14:23:58;14.48;;;8.05;;
21769;SDS011;11046;49.558;8.674;2023-03-02T14:26:59;22.83;;;7.50;;
21769;SDS011;11046;49.558;8.674;2023-03-02T14:30:00;16.45;;;8.40;;
21769;SDS011;11046;49.558;8.674;2023-03-02T14:33:02;21.33;;;8.55;;
21769;SDS011;11046;49.558;8.674;2023-03-02T14:36:03;18.25;;;8.02;;
21769;SDS011;11046;49.558;8.674;2023-03-02T14:39:06;24.38;;;8.60;;
21769;SDS011;11046;49.558;8.674;2023-03-02T14:42:41;22.30;;;9.10;;
21769;SDS011;11046;49.558;8.674;2023-03-02T14:45:48;17.20;;;8.05;;
21769;SDS011;11046;49.558;8.674;2023-03-02T14:48:51;19.20;;;9.43;;
21769;SDS011;11046;49.558;8.674;2023-03-02T14:51:59;15.60;;;8.07;;
21769;SDS011;11046;49.558;8.674;2023-03-02T14:55:05;16.30;;;7.78;;
21769;SDS011;11046;49.558;8.674;2023-03-02T14:58:14;21.48;;;8.98;;
21769;SDS011;11046;49.558;8.674;2023-03-02T15:01:17;17.70;;;8.73;;
21769;SDS011;11046;49.558;8.674;2023-03-02T15:04:19;15.50;;;8.13;;
21769;SDS011;11046;49.558;8.674;2023-03-02T15:07:21;17.02;;;8.52;;
21769;SDS011;11046;49.558;8.674;2023-03-02T15:10:31;15.60;;;8.03;;
21769;SDS011;11046;49.558;8.674;2023-03-02T15:13:32;19.63;;;7.47;;
21769;SDS011;11046;49.558;8.674;2023-03-02T15:16:35;16.95;;;8.05;;
21769;SDS011;11046;49.558;8.674;2023-03-02T15:19:39;18.27;;;7.47;;
21769;SDS011;11046;49.558;8.674;2023-03-02T15:22:43;14.55;;;6.60;;
21769;SDS011;11046;49.558;8.674;2023-03-02T15:25:43;22.40;;;8.83;;
21769;SDS011;11046;49.558;8.674;2023-03-02T15:28:44;15.02;;;7.82;;
21769;SDS011;11046;49.558;8.674;2023-03-02T15:31:48;15.03;;;7.10;;
21769;SDS011;11046;49.558;8.674;2023-03-02T15:34:48;25.07;;;9.13;;
21769;SDS011;11046;49.558;8.674;2023-03-02T15:37:49;17.50;;;7.82;;
21769;SDS011;11046;49.558;8.674;2023-03-02T15:40:50;18.80;;;8.70;;
21769;SDS011;11046;49.558;8.674;2023-03-02T15:43:52;21.90;;;8.57;;
21769;SDS011;11046;49.558;8.674;2023-03-02T15:46:53;19.47;;;8.40;;
21769;SDS011;11046;49.558;8.674;2023-03-02T15:49:55;19.42;;;8.63;;
21769;SDS011;11046;49.558;8.674;2023-03-02T15:52:56;16.77;;;8.67;;
21769;SDS011;11046;49.558;8.674;2023-03-02T15:55:57;21.03;;;8.27;;
21769;SDS011;11046;49.558;8.674;2023-03-02T15:58:57;20.03;;;8.17;;
21769;SDS011;11046;49.558;8.674;2023-03-02T16:01:58;17.80;;;8.53;;
21769;SDS011;11046;49.558;8.674;2023-03-02T16:05:01;30.23;;;14.00;;
21769;SDS011;11046;49.558;8.674;2023-03-02T16:08:01;18.77;;;9.10;;
21769;SDS011;11046;49.558;8.674;2023-03-02T16:11:05;17.85;;;7.97;;
21769;SDS011;11046;49.558;8.674;2023-03-02T16:14:07;20.77;;;8.13;;
21769;SDS011;11046;49.558;8.674;2023-03-02T16:17:08;15.20;;;7.40;;
21769;SDS011;11046;49.558;8.674;2023-03-02T16:20:08;18.87;;;7.63;;
21769;SDS011;11046;49.558;8.674;2023-03-02T16:23:10;18.83;;;7.63;;
21769;SDS011;11046;49.558;8.674;2023-03-02T16:26:12;17.40;;;8.00;;
21769;SDS011;11046;49.558;8.674;2023-03-02T16:29:14;18.52;;;7.78;;
21769;SDS011;11046;49.558;8.674;2023-03-02T16:32:15;15.50;;;7.57;;
21769;SDS011;11046;49.558;8.674;2023-03-02T16:35:15;15.23;;;6.97;;
21769;SDS011;11046;49.558;8.674;2023-03-02T16:38:16;15.27;;;7.30;;
21769;SDS011;11046;49.558;8.674;2023-03-02T16:41:18;13.37;;;6.17;;
21769;SDS011;11046;49.558;8.674;2023-03-02T16:44:21;160.53;;;50.40;;
21769;SDS011;11046;49.558;8.674;2023-03-02T16:47:22;38.37;;;13.20;;
21769;SDS011;11046;49.558;8.674;2023-03-02T16:50:22;36.60;;;14.20;;
21769;SDS011;11046;49.558;8.674;2023-03-02T16:53:23;36.40;;;17.17;;
21769;SDS011;11046;49.558;8.674;2023-03-02T16:56:23;27.17;;;11.93;;
21769;SDS011;11046;49.558;8.674;2023-03-02T16:59:24;21.23;;;9.73;;
21769;SDS011;11046;49.558;8.674;2023-03-02T17:02:25;27.13;;;9.17;;
21769;SDS011;11046;49.558;8.674;2023-03-02T17:05:25;21.60;;;11.87;;
21769;SDS011;11046;49.558;8.674;2023-03-02T17:08:26;29.70;;;13.73;;
21769;SDS011;11046;49.558;8.674;2023-03-02T17:11:27;14.20;;;7.80;;
21769;SDS011;11046;49.558;8.674;2023-03-02T17:14:29;23.33;;;9.17;;
21769;SDS011;11046;49.558;8.674;2023-03-02T17:17:32;27.77;;;12.17;;
21769;SDS011;11046;49.558;8.674;2023-03-02T17:20:33;25.23;;;12.07;;
21769;SDS011;11046;49.558;8.674;2023-03-02T17:23:34;111.77;;;39.53;;
21769;SDS011;11046;49.558;8.674;2023-03-02T17:26:36;32.60;;;13.77;;
21769;SDS011;11046;49.558;8.674;2023-03-02T17:29:40;28.23;;;12.20;;
21769;SDS011;11046;49.558;8.674;2023-03-02T17:32:40;30.50;;;13.50;;
21769;SDS011;11046;49.558;8.674;2023-03-02T17:35:41;22.47;;;9.97;;
21769;SDS011;11046;49.558;8.674;2023-03-02T17:38:43;33.63;;;14.60;;
21769;SDS011;11046;49.558;8.674;2023-03-02T17:41:43;25.13;;;12.43;;
21769;SDS011;11046;49.558;8.674;2023-03-02T17:44:47;23.77;;;10.70;;
21769;SDS011;11046;49.558;8.674;2023-03-02T17:47:50;22.63;;;9.73;;
21769;SDS011;11046;49.558;8.674;2023-03-02T17:50:52;25.10;;;11.10;;
21769;SDS011;11046;49.558;8.674;2023-03-02T17:53:53;24.40;;;10.33;;
21769;SDS011;11046;49.558;8.674;2023-03-02T17:56:54;22.33;;;9.47;;
21769;SDS011;11046;49.558;8.674;2023-03-02T18:00:00;27.70;;;10.23;;
21769;SDS011;11046;49.558;8.674;2023-03-02T18:03:04;73.60;;;31.57;;
21769;SDS011;11046;49.558;8.674;2023-03-02T18:06:08;34.43;;;13.43;;
21769;SDS011;11046;49.558;8.674;2023-03-02T18:09:09;32.70;;;13.63;;
21769;SDS011;11046;49.558;8.674;2023-03-02T18:12:09;29.90;;;12.80;;
21769;SDS011;11046;49.558;8.674;2023-03-02T18:15:10;32.57;;;14.47;;
21769;SDS011;11046;49.558;8.674;2023-03-02T18:18:11;24.17;;;12.60;;
21769;SDS011;11046;49.558;8.674;2023-03-02T18:21:12;26.70;;;11.63;;
21769;SDS011;11046;49.558;8.674;2023-03-02T18:24:13;27.27;;;12.10;;
21769;SDS011;11046;49.558;8.674;2023-03-02T18:27:14;31.27;;;15.20;;
21769;SDS011;11046;49.558;8.674;2023-03-02T18:30:15;30.50;;;14.30;;